Terminal Aerodrome Forecast
Issued by NWS Sioux Falls, SD

Home | Current Version | Previous Version | Graphics & Text | Print | Product List | Glossary On
Versions: 1 2 3 4 5 6 7 8 9 10 11 12 13 14 15 16 17 18
000
FTUS43 KFSD 280520
TAFHON
TAF
KHON 280520Z 2806/2906 29014KT P6SM OVC035
     FM281200 30018G25KT P6SM OVC030
     FM281600 30014G22KT P6SM BKN035
     FM290000 29007KT P6SM SCT035=

USA.gov is the U.S. government's official web portal to all federal, state and local government web resources and services.